Time;durP1;ratioP1;P1;durP2;ratioP2;P2;SDS_P1;SDS_P2;PMS_P1;PMS_P2;Temp;Humidity;BMP_temperature;BMP_pressure;BME280_temperature;BME280_humidity;BME280_pressure;Samples;Min_cycle;Max_cycle;Signal;HPM_P1;HPM_P2
2023/02/18 03:01:20;;;;;;;8.60;8.10;;;10.60;99.90;;;;;;5692005;23;20238;-79
2023/02/18 03:04:17;;;;;;;8.90;8.40;;;10.60;99.90;;;;;;4951938;28;20585;-79
2023/02/18 03:07:25;;;;;;;8.47;7.97;;;10.60;99.90;;;;;;4956009;28;20202;-79
2023/02/18 03:10:10;;;;;;;8.07;7.67;;;10.60;99.90;;;;;;4951026;28;20728;-80
2023/02/18 03:12:46;;;;;;;7.97;7.57;;;10.60;99.90;;;;;;4933126;29;20227;-80
2023/02/18 03:15:21;;;;;;;8.07;7.63;;;10.60;99.90;;;;;;4955430;28;20223;-80
2023/02/18 03:17:55;;;;;;;8.47;7.97;;;10.70;99.90;;;;;;4955873;28;20207;-80
2023/02/18 03:20:27;;;;;;;8.30;7.80;;;10.70;99.90;;;;;;4934547;29;20732;-80
2023/02/18 03:22:56;;;;;;;8.60;7.90;;;10.80;99.90;;;;;;4935996;29;20205;-80
2023/02/18 03:25:24;;;;;;;8.27;7.80;;;10.80;99.90;;;;;;4953082;28;20195;-79
2023/02/18 03:27:55;;;;;;;8.60;8.10;;;10.80;99.90;;;;;;4936678;29;20220;-80
2023/02/18 03:30:27;;;;;;;9.00;8.47;;;10.80;99.90;;;;;;4938171;29;20631;-80
2023/02/18 03:33:00;;;;;;;8.40;7.90;;;10.80;99.90;;;;;;4933752;29;20220;-80
2023/02/18 03:35:28;;;;;;;8.37;7.90;;;10.90;99.90;;;;;;4930572;29;20208;-80
2023/02/18 03:38:01;;;;;;;8.10;7.70;;;10.90;99.90;;;;;;4937009;29;20201;-79
2023/02/18 03:40:31;;;;;;;8.00;7.60;;;10.90;99.90;;;;;;4933860;29;20212;-80
2023/02/18 03:42:59;;;;;;;8.10;7.70;;;10.90;99.90;;;;;;4935087;29;20283;-78
2023/02/18 03:45:27;;;;;;;8.20;7.80;;;10.90;99.90;;;;;;4955661;28;20617;-81
2023/02/18 03:47:55;;;;;;;8.43;7.93;;;10.90;99.90;;;;;;4950290;28;20210;-80
2023/02/18 03:50:24;;;;;;;8.30;7.80;;;10.90;99.90;;;;;;4937063;29;20584;-79
2023/02/18 03:52:50;;;;;;;8.33;7.83;;;10.80;99.90;;;;;;4941004;29;20231;-80
2023/02/18 03:55:17;;;;;;;8.20;7.77;;;10.80;99.90;;;;;;4956418;28;20207;-80
2023/02/18 03:57:44;;;;;;;8.40;7.90;;;10.80;99.90;;;;;;4942819;29;20625;-80
2023/02/18 04:00:12;;;;;;;8.50;8.00;;;10.70;99.90;;;;;;4942067;29;20222;-80
2023/02/18 04:02:42;;;;;;;3.37;3.17;;;10.60;99.90;;;;;;4942191;29;20247;-80
2023/02/18 04:05:11;;;;;;;8.10;7.67;;;10.50;99.90;;;;;;4941314;29;20376;-80
2023/02/18 04:07:38;;;;;;;7.73;7.30;;;10.40;99.90;;;;;;4966196;28;20200;-80
2023/02/18 04:10:06;;;;;;;3.27;3.07;;;10.30;99.90;;;;;;4939395;29;20203;-80
2023/02/18 04:12:33;;;;;;;8.00;7.50;;;10.20;99.90;;;;;;4972332;28;20224;-80
2023/02/18 04:14:59;;;;;;;2.50;2.40;;;10.20;99.90;;;;;;4937943;29;20223;-79
2023/02/18 04:17:26;;;;;;;4.33;4.03;;;10.10;99.90;;;;;;4939714;29;20205;-79
2023/02/18 04:19:53;;;;;;;6.53;6.13;;;10.10;99.90;;;;;;4936675;29;20209;-79
2023/02/18 04:22:21;;;;;;;3.83;3.63;;;10.00;99.90;;;;;;4939116;29;20241;-78
2023/02/18 04:24:54;;;;;;;5.70;5.40;;;10.00;99.90;;;;;;4964393;28;20217;-79
2023/02/18 04:27:20;;;;;;;5.10;4.80;;;9.90;99.90;;;;;;4938598;29;20267;-79
2023/02/18 04:29:47;;;;;;;7.50;7.10;;;9.90;99.90;;;;;;4937808;29;20652;-79
2023/02/18 04:32:14;;;;;;;9.10;8.60;;;9.80;99.90;;;;;;4939326;29;20295;-79
2023/02/18 04:34:41;;;;;;;9.00;8.50;;;9.80;99.90;;;;;;4939639;29;20621;-79
2023/02/18 04:37:08;;;;;;;9.30;8.80;;;9.80;99.90;;;;;;4938372;29;20242;-79
2023/02/18 04:39:36;;;;;;;4.63;4.33;;;9.80;99.90;;;;;;4941697;29;20569;-80
2023/02/18 04:42:07;;;;;;;9.17;8.67;;;9.80;99.90;;;;;;4954280;28;20287;-80
2023/02/18 04:44:34;;;;;;;7.90;7.43;;;9.80;99.90;;;;;;4942321;29;20191;-80
2023/02/18 04:47:01;;;;;;;8.93;8.43;;;9.70;99.90;;;;;;4935802;29;20260;-80
2023/02/18 04:49:28;;;;;;;8.93;8.33;;;9.80;99.90;;;;;;4924490;29;20207;-81
2023/02/18 04:51:55;;;;;;;4.53;4.20;;;9.70;99.90;;;;;;4936951;29;20247;-79
2023/02/18 04:54:22;;;;;;;3.67;3.47;;;9.70;99.90;;;;;;4943813;29;20214;-81
2023/02/18 04:56:50;;;;;;;4.27;3.97;;;9.70;99.90;;;;;;4941208;29;20665;-80
2023/02/18 04:59:16;;;;;;;2.20;2.10;;;9.80;99.90;;;;;;4944576;29;20201;-80
2023/02/18 05:01:43;;;;;;;2.43;2.33;;;9.70;99.90;;;;;;4944627;29;20304;-79
2023/02/18 05:04:10;;;;;;;2.53;2.33;;;9.70;99.90;;;;;;4942355;29;20223;-80
2023/02/18 05:06:38;;;;;;;2.50;2.33;;;9.80;99.90;;;;;;4947192;29;20283;-83
2023/02/18 05:09:05;;;;;;;5.80;5.50;;;9.80;99.90;;;;;;4944243;29;20208;-81
2023/02/18 05:11:32;;;;;;;5.70;5.40;;;9.70;99.90;;;;;;4944776;29;20233;-81
2023/02/18 05:14:00;;;;;;;5.40;5.10;;;9.70;99.90;;;;;;4945506;29;20266;-79
2023/02/18 05:16:27;;;;;;;5.27;5.00;;;9.70;99.90;;;;;;4944183;28;20200;-80
2023/02/18 05:18:54;;;;;;;6.13;5.83;;;9.70;99.90;;;;;;4959634;28;20199;-80
2023/02/18 05:21:21;;;;;;;6.37;6.00;;;9.70;99.90;;;;;;4943634;29;20215;-80
2023/02/18 05:23:48;;;;;;;2.70;2.60;;;9.70;99.90;;;;;;4958134;28;20226;-80
2023/02/18 05:26:15;;;;;;;1.93;1.90;;;9.60;99.90;;;;;;4939198;29;20231;-80
2023/02/18 05:28:41;;;;;;;2.30;2.10;;;9.60;99.90;;;;;;4944942;29;20570;-80
2023/02/18 05:31:09;;;;;;;2.20;2.10;;;9.60;99.90;;;;;;4959321;28;20225;-80
2023/02/18 05:33:36;;;;;;;3.73;3.53;;;9.60;99.90;;;;;;4942705;29;20230;-80
2023/02/18 05:36:03;;;;;;;4.13;3.93;;;9.60;99.90;;;;;;4944044;29;20235;-80
2023/02/18 05:38:30;;;;;;;2.90;2.73;;;9.60;99.90;;;;;;4944960;29;20200;-79
2023/02/18 05:40:57;;;;;;;3.03;2.93;;;9.60;99.90;;;;;;4944911;29;20228;-77
2023/02/18 05:43:24;;;;;;;2.47;2.27;;;9.60;99.90;;;;;;4943818;28;20678;-80
2023/02/18 05:45:51;;;;;;;5.73;5.43;;;9.70;99.90;;;;;;4945117;29;20262;-80
2023/02/18 05:48:19;;;;;;;2.10;2.00;;;9.70;99.90;;;;;;4952592;28;20211;-82
2023/02/18 05:50:46;;;;;;;3.00;2.80;;;9.80;99.90;;;;;;4953895;28;20740;-79
2023/02/18 05:53:13;;;;;;;2.60;2.50;;;9.80;99.90;;;;;;4940159;29;20420;-78
2023/02/18 05:55:39;;;;;;;2.30;2.20;;;9.80;99.90;;;;;;4940902;29;20230;-78
2023/02/18 05:58:06;;;;;;;4.90;4.60;;;9.80;99.90;;;;;;4963203;28;20270;-78
2023/02/18 06:00:33;;;;;;;5.50;5.20;;;9.80;99.90;;;;;;4956428;28;20662;-79
2023/02/18 06:03:00;;;;;;;6.60;6.30;;;9.80;99.90;;;;;;4937297;29;20264;-79
2023/02/18 06:05:28;;;;;;;2.20;2.10;;;9.80;99.90;;;;;;4938402;29;20216;-79
2023/02/18 06:07:55;;;;;;;2.20;2.10;;;9.80;99.90;;;;;;4940809;29;20258;-79
2023/02/18 06:10:22;;;;;;;4.20;4.00;;;9.80;99.90;;;;;;4937354;29;20305;-79
2023/02/18 06:12:49;;;;;;;4.53;4.33;;;9.80;99.90;;;;;;4936796;29;20213;-78
2023/02/18 06:15:15;;;;;;;5.40;5.10;;;9.80;99.90;;;;;;4937187;29;20214;-78
2023/02/18 06:17:42;;;;;;;5.53;5.23;;;9.80;99.90;;;;;;4956845;29;20651;-79
2023/02/18 06:20:10;;;;;;;5.37;5.07;;;9.70;99.90;;;;;;4935860;29;20236;-79
2023/02/18 06:22:38;;;;;;;5.37;5.07;;;9.80;99.90;;;;;;4935822;29;20223;-78
2023/02/18 06:25:05;;;;;;;7.17;6.77;;;9.80;99.90;;;;;;4935110;29;20234;-81
2023/02/18 06:27:32;;;;;;;8.90;8.40;;;9.80;99.90;;;;;;4933940;29;20275;-80
2023/02/18 06:29:59;;;;;;;2.27;2.17;;;9.90;99.90;;;;;;4954664;28;20717;-79
2023/02/18 06:32:26;;;;;;;3.23;3.03;;;10.00;99.90;;;;;;4938671;29;20220;-79
2023/02/18 06:34:53;;;;;;;2.60;2.50;;;10.00;99.90;;;;;;4937882;29;20219;-79
2023/02/18 06:37:19;;;;;;;8.77;8.27;;;10.00;99.90;;;;;;4937270;29;20211;-79
2023/02/18 06:39:48;;;;;;;3.90;3.70;;;10.00;99.90;;;;;;4934884;29;20208;-79
2023/02/18 06:42:14;;;;;;;8.47;7.97;;;10.00;99.90;;;;;;4935761;29;20262;-78
2023/02/18 06:44:41;;;;;;;9.53;8.93;;;10.00;99.90;;;;;;4940396;29;20227;-79
2023/02/18 06:47:08;;;;;;;5.40;5.00;;;10.10;99.90;;;;;;4932271;29;20268;-79
2023/02/18 06:49:36;;;;;;;8.43;7.93;;;10.10;99.90;;;;;;4919141;29;20207;-81
2023/02/18 06:52:02;;;;;;;9.00;8.50;;;10.20;99.90;;;;;;4931020;29;20272;-79
2023/02/18 06:54:29;;;;;;;5.47;5.07;;;10.20;99.90;;;;;;4934861;29;20217;-80
2023/02/18 06:56:57;;;;;;;3.93;3.73;;;10.30;99.90;;;;;;4949500;28;20628;-79
2023/02/18 06:59:24;;;;;;;5.73;5.43;;;10.30;99.90;;;;;;4934530;29;20207;-81
2023/02/18 07:01:51;;;;;;;9.23;8.70;;;10.40;99.90;;;;;;4933820;29;20261;-82
2023/02/18 07:04:18;;;;;;;3.57;3.37;;;10.50;99.90;;;;;;4935035;29;20203;-81
2023/02/18 07:06:45;;;;;;;8.03;7.60;;;10.50;99.90;;;;;;4935272;29;20211;-79
2023/02/18 07:09:12;;;;;;;5.00;4.70;;;10.50;99.90;;;;;;4932923;29;20271;-80
2023/02/18 07:11:38;;;;;;;6.00;5.60;;;10.60;99.90;;;;;;4937548;29;20250;-79
2023/02/18 07:14:07;;;;;;;6.27;5.87;;;10.70;99.90;;;;;;4934056;29;20288;-79
2023/02/18 07:16:33;;;;;;;4.20;3.80;;;10.70;99.90;;;;;;4954326;28;20251;-79
2023/02/18 07:19:00;;;;;;;8.30;7.80;;;10.80;99.90;;;;;;4938667;29;20200;-78
2023/02/18 07:21:27;;;;;;;9.43;8.90;;;10.90;99.90;;;;;;4938526;29;20279;-78
2023/02/18 07:23:54;;;;;;;9.13;8.63;;;11.00;99.90;;;;;;4938702;29;20222;-78
2023/02/18 07:26:21;;;;;;;8.77;8.27;;;11.00;99.90;;;;;;4932666;29;20641;-79
2023/02/18 07:28:47;;;;;;;9.93;9.30;;;11.20;99.90;;;;;;4951303;28;20223;-82
2023/02/18 07:31:16;;;;;;;8.03;7.63;;;11.20;99.90;;;;;;4932098;29;20708;-81
2023/02/18 07:33:43;;;;;;;8.07;7.57;;;11.30;99.90;;;;;;4949837;28;20307;-82
2023/02/18 07:36:10;;;;;;;7.50;7.00;;;11.30;99.90;;;;;;4935059;29;20222;-82
2023/02/18 07:38:36;;;;;;;6.10;5.70;;;11.40;99.90;;;;;;4950265;28;20635;-82
2023/02/18 07:41:04;;;;;;;4.47;4.17;;;11.40;99.90;;;;;;4930906;29;20227;-82
2023/02/18 07:43:30;;;;;;;3.60;3.40;;;11.50;99.90;;;;;;4929855;29;20205;-78
2023/02/18 07:45:57;;;;;;;5.50;5.20;;;11.50;99.90;;;;;;4950813;28;20283;-77
2023/02/18 07:48:25;;;;;;;5.70;5.40;;;11.50;99.90;;;;;;4935164;29;20661;-81
2023/02/18 07:50:52;;;;;;;8.03;7.53;;;11.60;99.90;;;;;;4935491;29;20225;-84
2023/02/18 07:53:19;;;;;;;7.50;7.00;;;11.70;99.90;;;;;;4934669;29;20199;-83
2023/02/18 07:55:48;;;;;;;6.97;6.47;;;11.80;99.90;;;;;;4935072;29;20235;-83
2023/02/18 07:58:17;;;;;;;8.10;7.70;;;11.90;99.90;;;;;;4934842;29;20221;-83
2023/02/18 08:00:46;;;;;;;8.63;8.13;;;12.10;99.90;;;;;;4950937;28;20360;-84
2023/02/18 08:03:13;;;;;;;9.00;8.50;;;12.20;99.90;;;;;;4952115;28;20207;-83
2023/02/18 08:05:41;;;;;;;8.30;7.80;;;12.30;99.90;;;;;;4934896;29;20284;-80
2023/02/18 08:08:09;;;;;;;8.20;7.70;;;12.40;99.90;;;;;;4932858;29;20253;-81
2023/02/18 08:10:36;;;;;;;8.70;8.20;;;12.50;99.90;;;;;;4959774;28;20203;-81
2023/02/18 08:13:03;;;;;;;8.77;8.17;;;12.50;99.90;;;;;;4945962;29;20253;-80
2023/02/18 08:15:29;;;;;;;8.43;7.87;;;12.60;99.90;;;;;;4941921;29;20226;-79
2023/02/18 08:17:56;;;;;;;8.57;8.00;;;12.50;99.90;;;;;;4946010;29;20215;-80
2023/02/18 08:20:23;;;;;;;8.90;8.40;;;12.60;99.90;;;;;;4941714;29;20204;-79
2023/02/18 08:22:51;;;;;;;8.37;7.87;;;12.60;99.90;;;;;;4937743;29;20203;-79
2023/02/18 08:25:18;;;;;;;6.70;6.30;;;12.70;99.90;;;;;;4933345;29;20289;-80
2023/02/18 08:27:45;;;;;;;6.60;6.20;;;12.70;99.90;;;;;;4936030;29;20218;-80
2023/02/18 08:30:12;;;;;;;6.30;5.90;;;12.80;99.90;;;;;;4927784;29;20232;-83
2023/02/18 08:32:39;;;;;;;6.40;6.00;;;12.80;99.90;;;;;;4953789;28;20310;-80
2023/02/18 08:35:07;;;;;;;5.87;5.53;;;12.80;99.90;;;;;;4939068;29;20222;-82
2023/02/18 08:37:34;;;;;;;5.60;5.20;;;12.80;99.90;;;;;;4949155;28;20259;-84
2023/02/18 08:40:04;;;;;;;4.80;4.50;;;12.80;99.90;;;;;;4937912;29;20276;-84
2023/02/18 08:42:31;;;;;;;4.30;4.00;;;12.80;99.90;;;;;;4937826;29;20222;-83
2023/02/18 08:44:58;;;;;;;3.97;3.77;;;12.80;99.90;;;;;;4937689;29;20662;-82
2023/02/18 08:47:24;;;;;;;4.10;3.90;;;12.90;99.90;;;;;;4953172;28;20622;-84
2023/02/18 08:49:53;;;;;;;4.30;4.00;;;12.80;99.90;;;;;;4950237;28;20199;-84
2023/02/18 08:52:19;;;;;;;4.50;4.20;;;12.80;99.90;;;;;;4936491;29;20286;-81
2023/02/18 08:54:49;;;;;;;4.40;4.10;;;12.90;99.90;;;;;;4938608;29;20236;-80
2023/02/18 08:57:18;;;;;;;4.23;4.00;;;12.90;99.90;;;;;;4941517;28;20219;-79
2023/02/18 08:59:45;;;;;;;4.57;4.27;;;12.90;99.90;;;;;;4954050;28;20341;-79
2023/02/18 09:02:13;;;;;;;4.60;4.30;;;12.90;99.90;;;;;;4936718;29;20234;-78
2023/02/18 09:04:40;;;;;;;4.60;4.30;;;12.80;99.90;;;;;;4954259;28;20203;-78
2023/02/18 09:07:07;;;;;;;4.60;4.30;;;12.80;99.90;;;;;;4939830;29;20250;-79
2023/02/18 09:09:34;;;;;;;4.50;4.20;;;12.70;99.90;;;;;;4935459;29;20620;-79
2023/02/18 09:12:01;;;;;;;4.43;4.13;;;12.60;99.90;;;;;;4936121;29;20215;-80
2023/02/18 09:14:29;;;;;;;4.90;4.60;;;12.60;99.90;;;;;;4939420;29;20226;-80
2023/02/18 09:16:57;;;;;;;5.13;4.83;;;12.50;99.90;;;;;;4934655;29;20200;-80
2023/02/18 09:19:25;;;;;;;5.00;4.70;;;12.50;99.90;;;;;;4937332;29;20202;-83
2023/02/18 09:21:52;;;;;;;4.97;4.67;;;12.50;99.90;;;;;;4936271;29;20692;-83
2023/02/18 09:24:19;;;;;;;5.80;5.50;;;12.40;99.90;;;;;;4935839;29;20196;-83
2023/02/18 09:26:46;;;;;;;5.87;5.47;;;12.40;99.90;;;;;;4937462;29;20198;-83
2023/02/18 09:29:13;;;;;;;6.10;5.80;;;12.40;99.90;;;;;;4938752;29;20200;-81
2023/02/18 09:31:41;;;;;;;7.00;6.60;;;12.40;99.90;;;;;;4938800;29;20229;-84
2023/02/18 09:34:08;;;;;;;6.73;6.33;;;12.40;99.90;;;;;;4937352;29;20766;-79
2023/02/18 09:36:35;;;;;;;7.07;6.67;;;12.50;99.90;;;;;;4937372;29;20552;-79
2023/02/18 09:39:02;;;;;;;7.10;6.70;;;12.50;99.90;;;;;;4951017;28;20395;-79
2023/02/18 09:41:34;;;;;;;7.10;6.70;;;12.60;99.90;;;;;;4937612;29;20234;-79
2023/02/18 09:44:04;;;;;;;8.30;7.70;;;12.70;99.90;;;;;;4953402;28;20196;-79
2023/02/18 09:46:35;;;;;;;7.30;6.90;;;12.90;99.90;;;;;;4941630;29;20224;-79
2023/02/18 09:49:07;;;;;;;7.47;6.97;;;13.00;99.90;;;;;;4939360;29;20675;-80
2023/02/18 09:51:34;;;;;;;7.40;6.90;;;13.10;99.90;;;;;;4931858;29;20259;-79
2023/02/18 09:54:00;;;;;;;7.33;6.83;;;13.10;99.90;;;;;;4938315;29;20198;-79
2023/02/18 09:56:31;;;;;;;7.80;7.30;;;13.20;99.90;;;;;;4939214;29;20199;-79
2023/02/18 09:59:00;;;;;;;7.23;6.83;;;13.20;99.90;;;;;;4937699;29;20199;-79
2023/02/18 10:01:31;;;;;;;7.20;6.80;;;13.30;99.90;;;;;;4938404;29;20222;-79
2023/02/18 10:04:00;;;;;;;7.30;6.90;;;13.40;99.90;;;;;;4930490;29;20204;-79
2023/02/18 10:06:31;;;;;;;7.90;7.50;;;13.40;99.90;;;;;;4940963;29;20712;-79
2023/02/18 10:09:02;;;;;;;7.03;6.60;;;13.50;99.90;;;;;;4953652;28;20207;-79
2023/02/18 10:11:31;;;;;;;6.00;5.60;;;13.60;99.90;;;;;;4953175;28;20239;-79
2023/02/18 10:14:01;;;;;;;4.70;4.40;;;13.70;99.90;;;;;;4933835;29;20204;-79
2023/02/18 10:16:28;;;;;;;4.50;4.20;;;13.70;99.90;;;;;;4934548;29;20236;-78
2023/02/18 10:18:58;;;;;;;4.07;3.77;;;13.80;99.90;;;;;;4939069;29;20225;-79
2023/02/18 10:21:26;;;;;;;3.80;3.60;;;13.80;99.90;;;;;;4937935;29;20224;-79
2023/02/18 10:24:00;;;;;;;4.10;3.80;;;13.90;99.90;;;;;;4938732;29;20203;-79
2023/02/18 10:26:28;;;;;;;4.10;3.90;;;13.70;99.90;;;;;;4938067;29;20587;-79
2023/02/18 10:28:55;;;;;;;4.40;4.10;;;13.70;99.90;;;;;;4958411;28;20638;-79
2023/02/18 10:31:28;;;;;;;4.63;4.33;;;13.60;99.90;;;;;;4956855;28;20231;-79
2023/02/18 10:34:00;;;;;;;4.77;4.50;;;13.60;99.90;;;;;;4937741;29;20192;-79
2023/02/18 10:36:35;;;;;;;4.73;4.43;;;13.50;99.90;;;;;;4933208;29;20639;-79
2023/02/18 10:39:31;;;;;;;5.13;4.83;;;13.50;99.90;;;;;;4957020;28;20208;-79
2023/02/18 10:42:07;;;;;;;5.20;4.90;;;13.50;99.90;;;;;;4928642;29;20310;-79
2023/02/18 10:44:43;;;;;;;5.30;5.00;;;13.60;99.90;;;;;;4937978;29;20658;-79
2023/02/18 10:47:20;;;;;;;5.87;4.80;;;13.60;99.90;;;;;;4937389;29;20199;-79
2023/02/18 10:49:57;;;;;;;4.90;4.50;;;13.60;99.90;;;;;;4933830;29;20642;-82
2023/02/18 10:52:28;;;;;;;5.40;4.90;;;13.70;99.90;;;;;;4933577;29;20293;-79
2023/02/18 10:55:03;;;;;;;5.40;5.00;;;13.60;99.90;;;;;;4935908;29;20268;-80
2023/02/18 10:57:30;;;;;;;5.20;4.90;;;13.60;99.90;;;;;;4934461;29;20231;-79
2023/02/18 11:00:00;;;;;;;5.30;5.00;;;13.60;99.90;;;;;;4952355;28;20291;-80
2023/02/18 11:02:31;;;;;;;5.30;5.00;;;13.60;99.90;;;;;;4937301;29;20226;-80
2023/02/18 11:05:00;;;;;;;5.00;4.80;;;13.60;99.90;;;;;;4938286;29;20210;-80
2023/02/18 11:07:33;;;;;;;5.43;5.13;;;13.50;99.90;;;;;;4934464;29;20295;-81
2023/02/18 11:10:10;;;;;;;5.50;5.20;;;13.50;99.90;;;;;;4952304;28;20634;-81
2023/02/18 11:12:45;;;;;;;5.50;5.20;;;13.60;99.90;;;;;;4937764;29;20223;-82
2023/02/18 11:15:22;;;;;;;5.70;5.30;;;13.60;99.90;;;;;;4927574;29;20227;-82
2023/02/18 11:17:51;;;;;;;5.30;5.00;;;13.70;99.90;;;;;;4929084;29;20200;-80
2023/02/18 11:20:30;;;;;;;5.40;5.00;;;13.60;99.90;;;;;;4930779;29;20215;-79
2023/02/18 11:23:12;;;;;;;5.83;5.30;;;13.60;99.90;;;;;;4950645;28;20222;-79
2023/02/18 11:25:52;;;;;;;5.93;5.43;;;13.70;99.90;;;;;;4943580;28;20261;-80
2023/02/18 11:28:29;;;;;;;5.40;5.10;;;13.70;99.90;;;;;;4930652;29;20200;-79
2023/02/18 11:31:00;;;;;;;5.27;4.97;;;13.80;99.90;;;;;;4929338;29;20215;-76
2023/02/18 11:33:33;;;;;;;5.47;5.17;;;13.80;99.90;;;;;;4936020;29;20213;-77
2023/02/18 11:36:12;;;;;;;5.80;5.50;;;13.80;99.90;;;;;;4954658;28;20612;-77
2023/02/18 11:38:44;;;;;;;5.33;5.03;;;13.80;99.90;;;;;;4934891;29;20253;-77
2023/02/18 11:41:17;;;;;;;5.47;5.17;;;13.80;99.90;;;;;;4936118;29;20219;-82
2023/02/18 11:43:47;;;;;;;5.30;5.00;;;13.80;99.90;;;;;;4936504;29;20208;-80
2023/02/18 11:46:16;;;;;;;5.90;5.50;;;13.80;99.90;;;;;;4936811;29;20588;-80
2023/02/18 11:48:43;;;;;;;5.50;5.20;;;13.80;99.90;;;;;;4936794;29;20203;-79
2023/02/18 11:51:16;;;;;;;5.67;5.37;;;13.80;99.90;;;;;;4935766;29;20236;-79
2023/02/18 11:53:59;;;;;;;5.53;5.20;;;13.70;99.90;;;;;;4937077;29;20262;-79
2023/02/18 11:56:30;;;;;;;5.70;5.30;;;13.70;99.90;;;;;;4937146;29;20244;-79
2023/02/18 11:58:57;;;;;;;5.30;5.00;;;13.70;99.90;;;;;;4951983;28;20202;-80
2023/02/18 12:01:41;;;;;;;5.60;5.20;;;13.70;99.90;;;;;;4929102;29;20227;-76
2023/02/18 12:04:13;;;;;;;5.40;5.00;;;13.70;99.90;;;;;;4936191;29;20212;-80
2023/02/18 12:06:46;;;;;;;5.40;5.10;;;13.70;99.90;;;;;;4939550;29;20204;-80
2023/02/18 12:09:22;;;;;;;5.70;5.30;;;13.60;99.90;;;;;;4936780;29;20195;-81
2023/02/18 12:11:55;;;;;;;5.60;5.30;;;13.70;99.90;;;;;;4937977;29;20286;-81
2023/02/18 12:14:24;;;;;;;5.70;5.40;;;13.70;99.90;;;;;;4935096;29;20622;-80
2023/02/18 12:17:22;;;;;;;5.63;5.33;;;13.70;99.90;;;;;;4940089;29;20222;-81
2023/02/18 12:20:05;;;;;;;6.40;6.10;;;13.70;99.90;;;;;;4897515;29;20270;-80
2023/02/18 12:22:41;;;;;;;6.50;6.20;;;13.60;99.90;;;;;;4936859;29;20230;-81
2023/02/18 12:25:29;;;;;;;6.57;6.17;;;13.60;99.90;;;;;;4940096;29;20200;-81
2023/02/18 12:28:08;;;;;;;6.90;6.50;;;13.60;99.90;;;;;;4957196;28;20641;-81
2023/02/18 12:31:02;;;;;;;7.57;7.07;;;13.50;99.90;;;;;;4953921;28;20273;-81
2023/02/18 12:33:40;;;;;;;7.80;7.30;;;13.50;99.90;;;;;;4937018;29;20215;-81
2023/02/18 12:36:13;;;;;;;7.13;6.73;;;13.60;99.90;;;;;;4937807;29;20254;-80
2023/02/18 12:39:01;;;;;;;8.40;7.90;;;13.60;99.90;;;;;;4940232;29;20195;-77
2023/02/18 12:42:07;;;;;;;8.70;8.20;;;13.70;99.90;;;;;;4934808;29;20655;-76
2023/02/18 12:44:44;;;;;;;8.80;8.20;;;13.90;99.90;;;;;;4911778;29;20631;-78
2023/02/18 12:47:31;;;;;;;8.53;8.00;;;13.90;99.90;;;;;;4938846;29;20685;-78
2023/02/18 12:50:23;;;;;;;7.90;7.40;;;14.10;99.90;;;;;;4935785;29;20260;-81
2023/02/18 12:53:03;;;;;;;8.50;8.00;;;14.20;99.90;;;;;;4950340;28;20207;-81
2023/02/18 12:55:44;;;;;;;8.10;7.60;;;14.30;99.90;;;;;;4938652;29;20230;-80
2023/02/18 12:58:23;;;;;;;8.20;7.70;;;14.40;99.90;;;;;;4938993;29;20201;-81
2023/02/18 13:01:06;;;;;;;8.07;7.47;;;14.40;99.90;;;;;;4937447;29;20235;-81
2023/02/18 13:04:03;;;;;;;8.07;7.57;;;14.40;99.90;;;;;;4939642;29;20209;-80
2023/02/18 13:06:51;;;;;;;8.40;7.60;;;14.40;99.90;;;;;;4947467;28;20298;-77
2023/02/18 13:09:31;;;;;;;8.33;7.73;;;14.50;99.90;;;;;;4936481;29;20202;-78
2023/02/18 13:12:08;;;;;;;8.00;7.60;;;14.40;99.90;;;;;;4939397;29;20259;-81
2023/02/18 13:14:44;;;;;;;9.07;8.47;;;14.40;99.90;;;;;;4938260;29;20212;-81
2023/02/18 13:17:15;;;;;;;8.63;8.13;;;14.50;99.90;;;;;;4953125;28;20196;-80
2023/02/18 13:19:47;;;;;;;8.60;8.00;;;14.50;99.90;;;;;;4951714;28;20676;-81
2023/02/18 13:22:17;;;;;;;8.70;8.20;;;14.60;99.90;;;;;;4936418;29;20235;-80
2023/02/18 13:24:51;;;;;;;8.77;8.27;;;14.60;99.90;;;;;;4937760;29;20258;-80
2023/02/18 13:27:25;;;;;;;8.90;8.30;;;14.60;99.90;;;;;;4938586;29;20613;-81
2023/02/18 13:30:30;;;;;;;8.57;7.97;;;14.60;99.90;;;;;;4953895;28;20203;-80
2023/02/18 13:33:10;;;;;;;8.20;7.70;;;14.50;99.90;;;;;;4942755;29;20745;-81
2023/02/18 13:35:48;;;;;;;7.40;6.97;;;14.60;99.90;;;;;;4936788;29;20224;-81
2023/02/18 13:38:50;;;;;;;8.63;8.13;;;14.60;99.90;;;;;;4939930;29;20226;-81
2023/02/18 13:41:29;;;;;;;9.40;8.70;;;14.60;99.90;;;;;;4933571;29;20260;-81
2023/02/18 13:44:06;;;;;;;7.97;7.37;;;14.60;99.90;;;;;;4955960;28;20208;-80
2023/02/18 13:46:48;;;;;;;9.70;9.10;;;14.50;99.90;;;;;;4939747;29;20583;-82
2023/02/18 13:49:20;;;;;;;8.70;8.10;;;14.40;99.90;;;;;;4934009;29;20264;-81
2023/02/18 13:54:43;;;;;;;8.80;8.20;;;14.30;99.90;;;;;;4923502;29;20270;-80
2023/02/18 13:57:15;;;;;;;7.83;7.43;;;14.30;99.90;;;;;;4956343;28;20605;-81
2023/02/18 13:59:45;;;;;;;8.43;7.83;;;14.20;99.90;;;;;;4962047;28;20221;-80
2023/02/18 14:02:55;;;;;;;8.30;7.80;;;14.30;99.90;;;;;;4954415;28;20227;-81
2023/02/18 14:05:25;;;;;;;8.20;7.70;;;14.20;99.90;;;;;;4948386;29;20656;-80
2023/02/18 14:08:02;;;;;;;8.53;8.03;;;14.20;99.90;;;;;;4939599;29;20200;-80
2023/02/18 14:10:36;;;;;;;8.57;8.07;;;14.20;99.90;;;;;;4939885;29;20206;-81
2023/02/18 14:13:23;;;;;;;8.03;7.60;;;14.30;99.90;;;;;;4941269;29;20283;-81
2023/02/18 14:15:54;;;;;;;8.40;7.90;;;14.20;99.90;;;;;;4939516;29;20633;-80
2023/02/18 14:18:49;;;;;;;8.67;8.07;;;14.20;99.90;;;;;;4937612;29;20301;-80
2023/02/18 14:21:34;;;;;;;8.60;8.00;;;14.10;99.90;;;;;;4937766;29;20226;-80
2023/02/18 14:24:05;;;;;;;8.63;8.00;;;14.10;99.90;;;;;;4930092;29;20224;-81
2023/02/18 14:26:36;;;;;;;7.90;7.50;;;14.10;99.90;;;;;;4954637;29;20199;-85
2023/02/18 14:29:10;;;;;;;8.67;8.17;;;14.10;99.90;;;;;;4937386;29;20195;-81
2023/02/18 14:31:44;;;;;;;8.90;8.30;;;14.10;99.90;;;;;;4939920;29;20249;-80
2023/02/18 14:34:55;;;;;;;8.60;8.00;;;14.10;99.90;;;;;;4939342;29;20197;-80
2023/02/18 14:37:50;;;;;;;8.87;8.27;;;14.00;99.90;;;;;;4954175;28;20646;-80
2023/02/18 14:40:26;;;;;;;9.40;8.80;;;14.00;99.90;;;;;;4942736;29;20204;-80
2023/02/18 14:43:02;;;;;;;9.93;9.23;;;14.10;99.90;;;;;;4938559;29;20203;-81
2023/02/18 14:45:41;;;;;;;9.30;8.60;;;14.10;99.90;;;;;;4936829;29;20276;-80
2023/02/18 14:48:27;;;;;;;8.90;8.40;;;14.00;99.90;;;;;;4939225;29;20675;-81
2023/02/18 14:50:55;;;;;;;8.70;8.20;;;14.00;99.90;;;;;;4938791;29;20221;-80
2023/02/18 14:53:25;;;;;;;8.43;7.83;;;13.90;99.90;;;;;;4952942;28;20635;-81
2023/02/18 14:55:55;;;;;;;8.43;7.93;;;14.00;99.90;;;;;;4940585;29;20213;-81
2023/02/18 14:58:31;;;;;;;8.40;7.90;;;13.90;99.90;;;;;;4957834;28;20208;-81
2023/02/18 15:01:05;;;;;;;8.97;8.37;;;13.90;99.90;;;;;;4937132;29;20245;-81
2023/02/18 15:03:32;;;;;;;8.33;7.83;;;13.90;99.90;;;;;;4953284;28;20203;-81
2023/02/18 15:05:58;;;;;;;8.53;8.00;;;14.00;99.90;;;;;;4937550;29;20218;-81
2023/02/18 15:08:27;;;;;;;8.20;7.70;;;14.00;99.90;;;;;;4938660;29;20205;-81
2023/02/18 15:10:59;;;;;;;8.50;8.00;;;14.00;99.90;;;;;;4936485;29;20291;-80
2023/02/18 15:13:29;;;;;;;8.60;8.10;;;14.00;99.90;;;;;;4953694;28;20263;-81
2023/02/18 15:15:59;;;;;;;8.70;8.20;;;14.00;99.90;;;;;;4938722;29;20696;-80
2023/02/18 15:18:31;;;;;;;8.80;8.30;;;14.00;99.90;;;;;;4952666;28;20205;-81
2023/02/18 15:21:00;;;;;;;8.47;7.97;;;14.00;99.90;;;;;;4938579;29;20223;-81
2023/02/18 15:23:30;;;;;;;8.70;8.10;;;14.10;99.90;;;;;;4938495;29;20616;-81
2023/02/18 15:25:58;;;;;;;8.50;8.00;;;14.00;99.90;;;;;;4935751;29;20209;-80
2023/02/18 15:28:27;;;;;;;8.77;8.27;;;14.00;99.90;;;;;;4938009;29;20224;-80
2023/02/18 15:30:56;;;;;;;8.90;8.40;;;14.10;99.90;;;;;;4933385;29;20223;-81
2023/02/18 15:33:23;;;;;;;8.37;7.87;;;14.10;99.90;;;;;;4954187;28;20207;-81
2023/02/18 15:35:50;;;;;;;9.30;8.70;;;14.10;99.90;;;;;;4935918;29;20223;-79
2023/02/18 15:38:19;;;;;;;8.60;8.10;;;14.10;99.90;;;;;;4943851;29;20207;-77
2023/02/18 15:40:52;;;;;;;9.10;8.30;;;14.00;99.90;;;;;;4938205;29;20268;-77
2023/02/18 15:43:21;;;;;;;9.00;8.50;;;13.90;99.90;;;;;;4919515;29;20213;-78
2023/02/18 15:45:51;;;;;;;8.60;8.10;;;13.90;99.90;;;;;;4933773;29;20279;-83
2023/02/18 15:48:27;;;;;;;8.97;8.37;;;13.80;99.90;;;;;;4936175;29;20207;-81
2023/02/18 15:50:54;;;;;;;8.10;7.60;;;13.70;99.90;;;;;;4954323;28;20243;-78
2023/02/18 15:53:24;;;;;;;8.10;7.60;;;13.70;99.90;;;;;;4950105;28;20569;-83
2023/02/18 15:55:54;;;;;;;8.70;8.10;;;13.60;99.90;;;;;;4948935;28;20259;-83
2023/02/18 15:58:24;;;;;;;9.03;8.33;;;13.60;99.90;;;;;;4953564;28;20239;-86
2023/02/18 16:00:53;;;;;;;8.73;8.23;;;13.60;99.90;;;;;;4951671;29;20247;-85
2023/02/18 16:03:22;;;;;;;9.07;8.47;;;13.50;99.90;;;;;;4951557;28;20211;-81
2023/02/18 16:05:49;;;;;;;9.03;8.47;;;13.50;99.90;;;;;;4919032;29;20234;-83
2023/02/18 16:08:22;;;;;;;8.43;7.93;;;13.50;99.90;;;;;;4926546;29;20734;-84
2023/02/18 16:10:53;;;;;;;9.00;8.40;;;13.50;99.90;;;;;;4938212;28;20231;-83
2023/02/18 16:13:21;;;;;;;8.70;8.20;;;13.40;99.90;;;;;;4932257;29;20261;-83